Flight Track Log - Related Links

Times and Time Zones

All times are in EDT time to prevent confusion due to time zone crossing. See the SWA3034 flight status page for this flight to view local times or setup timezone preferences in your user account.

Time Position Orientation Groundspeed Altitude Reporting Facility
EDT Latitude Longitude Course Direction KTS MPH feet Rate Location/Type
Sat 07:49:32 PM 37.6333 -122.3833 47° Northeast 170 196 1,400  Level Northern Cal TRACON
Sat 07:50:32 PM 37.6833 -122.3167 47° Northeast 228 262 4,100 2,650 Climbing Northern Cal TRACON
Sat 07:51:32 PM 37.7167 -122.2500 58° Northeast 257 296 6,700 2,255 Climbing Northern Cal TRACON
Sat 07:53:09 PM 37.7772 -122.1078 62° Northeast 300 345 10,000 2,203 Climbing Oakland Center
Sat 07:54:10 PM 37.8119 -121.9978 68° East 331 381 12,500 2,537 Climbing Oakland Center
Sat 07:55:12 PM 37.8439 -121.8778 71° East 357 411 15,200 2,878 Climbing Oakland Center
Sat 07:56:13 PM 37.8858 -121.7222 71° East 389 448 18,400 2,656 Climbing Oakland Center
Sat 07:57:14 PM 37.9181 -121.6033 71° East 412 474 20,600 2,439 Climbing Oakland Center
Sat 07:58:16 PM 37.9633 -121.4275 72° East 438 504 23,400 2,439 Climbing Oakland Center
Sat 07:59:17 PM 38.0033 -121.2775 71° East 450 518 25,600 1,967 Climbing Oakland Center
Sat 08:00:18 PM 38.0436 -121.1222 72° East 465 535 27,400 1,721 Climbing Oakland Center
Sat 08:01:19 PM 38.0853 -120.9619 72° East 479 551 29,100 1,512 Climbing Oakland Center
Sat 08:02:21 PM 38.1239 -120.7956 74° East 493 567 30,500 1,366 Climbing Oakland Center
Sat 08:03:22 PM 38.1642 -120.6250 73° East 505 581 31,900 1,623 Climbing Oakland Center
Sat 08:04:23 PM 38.2056 -120.4519 73° East 510 587 33,800 1,805 Climbing Oakland Center
Sat 08:05:25 PM 38.2447 -120.2814 74° East 510 587 35,600 1,659 Climbing Oakland Center
Sat 08:06:26 PM 38.2953 -120.0789 72° East 505 581 37,200 1,377 Climbing Oakland Center
Sat 08:07:27 PM 38.3350 -119.9081 73° East 504 580 38,400 878 Climbing Oakland Center
Sat 08:08:29 PM 38.3733 -119.7375 74° East 503 579 39,000 293 Climbing Oakland Center
Sat 08:09:30 PM 38.4136 -119.5667 73° East 503 579 39,000  Level Oakland Center
Sat 08:10:31 PM 38.4511 -119.4028 74° East 503 579 39,000  Level Oakland Center
Sat 08:11:32 PM 38.4914 -119.2342 73° East 503 579 39,000  Level Oakland Center
Sat 08:12:34 PM 38.5400 -119.0297 73° East 503 579 39,000  Level Oakland Center
Sat 08:13:35 PM 38.5797 -118.8619 73° East 502 578 39,000  Level Oakland Center
Sat 08:14:36 PM 38.6183 -118.6919 74° East 502 578 39,000  Level Oakland Center
Sat 08:15:37 PM 38.6586 -118.5228 73° East 502 578 39,000  Level Oakland Center
Sat 08:16:38 PM 38.6975 -118.3522 74° East 502 578 39,000  Level Oakland Center
Sat 08:17:40 PM 38.7361 -118.1800 74° East 503 579 39,000  Level Oakland Center
Sat 08:18:41 PM 38.7744 -118.0100 74° East 503 579 39,000  Level Oakland Center
Sat 08:19:42 PM 38.8136 -117.8394 74° East 503 579 39,000  Level Oakland Center
Sat 08:20:43 PM 38.8564 -117.6392 75° East 503 579 39,000  Level Oakland Center
Sat 08:21:44 PM 38.8947 -117.4664 74° East 502 578 39,000  Level Oakland Center
Sat 08:22:46 PM 38.9322 -117.2928 74° East 501 577 39,000  Level Oakland Center
Sat 08:23:47 PM 38.9706 -117.1219 74° East 501 577 39,000  Level Oakland Center
Sat 08:24:40 PM 38.9989 -116.9836 75° East 502 578 39,000  Level Salt Lake Center
Sat 08:25:42 PM 39.0356 -116.8106 75° East 502 578 39,000  Level Salt Lake Center
Sat 08:26:43 PM 39.0717 -116.6381 75° East 501 577 39,000  Level Salt Lake Center
Sat 08:27:44 PM 39.1136 -116.4419 75° East 501 577 39,000  Level Salt Lake Center
Sat 08:28:46 PM 39.1483 -116.2753 75° East 501 577 39,000  Level Salt Lake Center
Sat 08:29:47 PM 39.1886 -116.0819 75° East 502 578 39,000  Level Salt Lake Center
Sat 08:30:48 PM 39.2225 -115.9144 75° East 503 579 39,000  Level Salt Lake Center
Sat 08:31:50 PM 39.2628 -115.7200 75° East 503 579 39,000  Level Salt Lake Center
Sat 08:32:51 PM 39.2967 -115.5522 75° East 506 582 39,000  Level Salt Lake Center
Sat 08:33:52 PM 39.3294 -115.3872 76° East 504 580 39,000  Level Salt Lake Center
Sat 08:34:54 PM 39.3681 -115.1928 76° East 499 574 39,000  Level Salt Lake Center
Sat 08:35:55 PM 39.3997 -115.0264 76° East 499 574 39,000  Level Salt Lake Center
Sat 08:36:57 PM 39.4369 -114.8317 76° East 499 574 39,000  Level Salt Lake Center
Sat 08:37:58 PM 39.4706 -114.6644 75° East 501 577 39,000  Level Salt Lake Center
Sat 08:38:59 PM 39.5019 -114.4978 76° East 501 577 39,000  Level Salt Lake Center
Sat 08:40:01 PM 39.5411 -114.2989 76° East 500 575 39,000  Level Salt Lake Center
Sat 08:41:02 PM 39.5733 -114.1242 76° East 500 575 39,000  Level Salt Lake Center
Sat 08:42:03 PM 39.6056 -113.9497 76° East 500 575 39,000  Level Salt Lake Center
Sat 08:43:05 PM 39.6386 -113.7753 76° East 500 575 39,000  Level Salt Lake Center
Sat 08:44:06 PM 39.6697 -113.6025 77° East 498 573 39,000  Level Salt Lake Center
Sat 08:45:07 PM 39.7019 -113.4275 76° East 498 573 39,000  Level Salt Lake Center
Sat 08:46:09 PM 39.7319 -113.2561 77° East 493 567 39,000  Level Salt Lake Center
Sat 08:47:10 PM 39.7619 -113.0858 77° East 492 566 39,000  Level Salt Lake Center
Sat 08:48:11 PM 39.7983 -112.8769 77° East 492 566 39,000  Level Salt Lake Center
Sat 08:49:13 PM 39.8289 -112.7036 77° East 492 566 39,000  Level Salt Lake Center
Sat 08:50:14 PM 39.8592 -112.5289 77° East 495 570 39,000  Level Salt Lake Center
Sat 08:51:15 PM 39.8892 -112.3564 77° East 495 570 39,000  Level Salt Lake Center
Sat 08:52:17 PM 39.9189 -112.1844 77° East 493 567 39,000  Level Salt Lake Center
Sat 08:53:18 PM 39.9472 -112.0097 78° East 493 567 39,000  Level Salt Lake Center
Sat 08:54:19 PM 39.9761 -111.8372 78° East 493 567 39,000  Level Salt Lake Center
Sat 08:55:21 PM 40.0056 -111.6639 77° East 494 568 39,000  Level Salt Lake Center
Sat 08:56:22 PM 40.0375 -111.4575 79° East 496 571 39,000  Level Salt Lake Center
Sat 08:57:23 PM 40.0672 -111.2794 78° East 495 570 39,000  Level Salt Lake Center
Sat 08:58:25 PM 40.0939 -111.1064 79° East 489 563 39,000  Level Salt Lake Center
Sat 08:59:26 PM 40.1222 -110.9261 78° East 492 566 39,000  Level Salt Lake Center
Sat 09:00:27 PM 40.1489 -110.7575 78° East 493 567 39,000  Level Salt Lake Center
Sat 09:01:28 PM 40.1792 -110.5611 79° East 493 567 39,000  Level Salt Lake Center
Sat 09:02:30 PM 40.2061 -110.3892 78° East 498 573 39,000  Level Salt Lake Center
Sat 09:03:31 PM 40.2311 -110.2183 79° East 499 574 39,000  Level Salt Lake Center
Sat 09:04:32 PM 40.2597 -110.0186 79° East 499 574 39,000  Level Salt Lake Center
Sat 09:05:34 PM 40.2864 -109.8478 78° East 499 574 39,000  Level Salt Lake Center
Sat 09:06:35 PM 40.3150 -109.6494 79° East 499 574 39,000  Level Salt Lake Center
Sat 09:07:36 PM 40.3389 -109.4808 79° East 496 571 39,000  Level Salt Lake Center
Sat 09:08:37 PM 40.3639 -109.3131 79° East 494 568 39,000  Level Salt Lake Center
Sat 09:09:39 PM 40.3906 -109.1172 80° East 490 564 39,000  Level Salt Lake Center
Sat 09:10:40 PM 40.4144 -108.9489 79° East 490 564 39,000  Level Salt Lake Center
Sat 09:11:41 PM 40.4403 -108.7592 80° East 490 564 39,000  Level Salt Lake Center
Sat 09:12:42 PM 40.4636 -108.5911 80° East 490 564 39,000  Level Salt Lake Center
Sat 09:13:44 PM 40.4853 -108.4233 80° East 490 564 39,000  Level Salt Lake Center
Sat 09:14:45 PM 40.5117 -108.2272 80° East 490 564 39,000  Level Salt Lake Center
Sat 09:15:46 PM 40.5333 -108.0600 80° East 489 563 39,000  Level Salt Lake Center
Sat 09:16:16 PM 40.5464 -107.9625 80° East 489 563 39,000  Level Denver Center
Sat 09:17:17 PM 40.5675 -107.7931 81° East 489 563 39,000  Level Denver Center
Sat 09:18:19 PM 40.5931 -107.5964 80° East 489 563 39,000  Level Denver Center
Sat 09:19:21 PM 40.6136 -107.4283 81° East 489 563 39,000  Level Denver Center
Sat 09:20:22 PM 40.6342 -107.2622 81° East 485 558 39,000  Level Denver Center
Sat 09:21:24 PM 40.6561 -107.0897 80° East 485 558 39,000  Level Denver Center
Sat 09:22:26 PM 40.6767 -106.9164 81° East 483 556 39,000  Level Denver Center
Sat 09:23:27 PM 40.7017 -106.7147 81° East 467 537 39,000  Level Denver Center
Sat 09:24:29 PM 40.7222 -106.5458 81° East 465 535 39,000 48 Level Denver Center
Sat 09:25:31 PM 40.7417 -106.3589 82° East 479 551 39,100  Climbing Denver Center
Sat 09:26:32 PM 40.7619 -106.1878 81° East 471 542 39,000 -49 Descending Denver Center
Sat 09:27:34 PM 40.7783 -106.0283 82° East 471 542 39,000  Level Denver Center
Sat 09:28:35 PM 40.7978 -105.8586 81° East 470 541 39,000  Level Denver Center
Sat 09:29:37 PM 40.8172 -105.6853 82° East 473 544 39,000  Level Denver Center
Sat 09:30:38 PM 40.8358 -105.5108 82° East 475 547 39,000  Level Denver Center
Sat 09:31:40 PM 40.8581 -105.3044 82° East 474 545 39,000  Level Denver Center
Sat 09:32:42 PM 40.8758 -105.1342 82° East 471 542 39,000  Level Denver Center
Sat 09:33:43 PM 40.8931 -104.9625 82° East 470 541 39,000  Level Denver Center
Sat 09:34:45 PM 40.9108 -104.7900 82° East 470 541 39,000  Level Denver Center
Sat 09:35:46 PM 40.9269 -104.6206 83° East 466 536 39,000  Level Denver Center
Sat 09:36:48 PM 40.9444 -104.4472 82° East 469 540 39,000  Level Denver Center
Sat 09:37:49 PM 40.9611 -104.2744 83° East 471 542 39,000  Level Denver Center
Sat 09:38:51 PM 40.9769 -104.1014 83° East 471 542 39,000  Level Denver Center
Sat 09:39:53 PM 40.9967 -103.8967 83° East 472 543 39,000  Level Denver Center
Sat 09:40:54 PM 41.0144 -103.7306 82° East 475 547 39,000  Level Denver Center
Sat 09:41:56 PM 41.0483 -103.5619 75° East 491 565 39,000  Level Denver Center
Sat 09:42:57 PM 41.0861 -103.3667 76° East 492 566 39,000  Level Denver Center
Sat 09:43:59 PM 41.1181 -103.1989 76° East 492 566 39,000  Level Denver Center
Sat 09:45:01 PM 41.1539 -103.0036 76° East 492 566 39,000  Level Denver Center
Sat 09:46:02 PM 41.1842 -102.8400 76° East 490 564 39,000  Level Denver Center
Sat 09:47:04 PM 41.2217 -102.6442 76° East 486 559 39,000  Level Denver Center
Sat 09:48:05 PM 41.2500 -102.4822 77° East 480 552 39,000  Level Denver Center
Sat 09:49:07 PM 41.2850 -102.2897 76° East 482 555 39,000  Level Denver Center
Sat 09:50:09 PM 41.3147 -102.1222 77° East 482 555 39,000  Level Denver Center
Sat 09:51:10 PM 41.3442 -101.9494 77° East 494 568 39,000  Level Denver Center
Sat 09:52:12 PM 41.3842 -101.7444 75° East 508 585 39,000  Level Denver Center
Sat 09:53:13 PM 41.4147 -101.5703 77° East 509 586 39,000  Level Denver Center
Sat 09:54:15 PM 41.4483 -101.3678 77° East 504 580 39,000  Level Denver Center
Sat 09:55:17 PM 41.4792 -101.1914 77° East 506 582 39,000  Level Denver Center
Sat 09:56:18 PM 41.5086 -101.0133 77° East 509 586 39,000  Level Denver Center
Sat 09:57:20 PM 41.5436 -100.8033 77° East 519 597 39,000  Level Denver Center
Sat 09:58:21 PM 41.5736 -100.6242 77° East 517 595 39,000  Level Denver Center
Sat 09:59:23 PM 41.6075 -100.4139 78° East 517 595 39,000  Level Denver Center
Sat 10:00:24 PM 41.6367 -100.2369 78° East 513 590 39,000  Level Denver Center
Sat 10:01:26 PM 41.6639 -100.0622 78° East 506 582 39,000  Level Denver Center
Sat 10:02:27 PM 41.6886 -99.8647 80° East 487 560 39,000  Level Denver Center
Sat 10:03:29 PM 41.6847 -99.6839 92° East 473 544 39,000  Level Denver Center
Sat 10:04:00 PM 41.6836 -99.6142 91° East 475 547 39,000  Level Minneapolis Center
Sat 10:04:31 PM 41.6836 -99.5069 90° East 473 544 39,000  Level Denver Center
Sat 10:05:32 PM 41.6847 -99.3269 89° East 478 550 39,000  Level Denver Center
Sat 10:06:34 PM 41.6886 -99.1483 88° East 478 550 39,000  Level Denver Center
Sat 10:07:35 PM 41.6997 -98.9753 85° East 470 541 39,000  Level Denver Center
Sat 10:08:37 PM 41.7156 -98.8117 83° East 445 512 39,000  Level Denver Center
Sat 10:09:38 PM 41.7278 -98.6378 85° East 461 531 39,000  Level Denver Center
Sat 10:10:40 PM 41.7383 -98.4650 85° East 464 534 39,000  Level Denver Center
Sat 10:12:06 PM 41.7414 -98.2169 89° East 469 540 39,000  Level Minneapolis Center
Sat 10:13:07 PM 41.7331 -98.0289 93° East 469 540 39,000  Level Minneapolis Center
Sat 10:14:08 PM 41.7228 -97.8564 95° East 468 539 39,000  Level Minneapolis Center
Sat 10:15:09 PM 41.7103 -97.6872 96° East 463 533 39,000  Level Minneapolis Center
Sat 10:16:10 PM 41.6997 -97.5172 95° East 462 532 39,000  Level Minneapolis Center
Sat 10:17:12 PM 41.6822 -97.3453 98° East 462 532 39,000  Level Minneapolis Center
Sat 10:18:13 PM 41.6633 -97.1772 99° East 462 532 39,000  Level Minneapolis Center
Sat 10:19:14 PM 41.6381 -96.9831 100° East 447 514 39,000  Level Minneapolis Center
Sat 10:20:14 PM 41.6228 -96.8194 97° East 445 512 39,000  Level Minneapolis Center
Sat 10:21:15 PM 41.6558 -96.6553 75° East 452 520 39,000  Level Minneapolis Center
Sat 10:22:16 PM 41.6950 -96.4939 72° East 453 521 39,000  Level Minneapolis Center
Sat 10:23:17 PM 41.7328 -96.3314 73° East 454 522 39,000  Level Minneapolis Center
Sat 10:24:18 PM 41.7719 -96.1667 72° East 455 524 39,000  Level Minneapolis Center
Sat 10:25:19 PM 41.8094 -96.0014 73° East 456 525 39,000  Level Minneapolis Center
Sat 10:26:20 PM 41.8483 -95.8333 73° East 465 535 39,000  Level Minneapolis Center
Sat 10:27:20 PM 41.8875 -95.6619 73° East 471 542 39,000  Level Minneapolis Center
Sat 10:28:21 PM 41.9272 -95.4886 73° East 481 554 39,000  Level Minneapolis Center
Sat 10:29:22 PM 41.9669 -95.3117 73° East 488 562 39,000  Level Minneapolis Center
Sat 10:30:23 PM 42.0075 -95.1325 73° East 496 571 39,000  Level Minneapolis Center
Sat 10:31:24 PM 42.0469 -94.9536 73° East 497 572 39,000  Level Minneapolis Center
Sat 10:32:25 PM 42.0856 -94.7758 74° East 496 571 39,000  Level Minneapolis Center
Sat 10:33:25 PM 42.1244 -94.5986 73° East 496 571 39,000  Level Minneapolis Center
Sat 10:34:26 PM 42.1622 -94.4200 74° East 496 571 39,000  Level Minneapolis Center
Sat 10:35:27 PM 42.2014 -94.2433 73° East 496 571 39,000  Level Minneapolis Center
Sat 10:36:28 PM 42.2397 -94.0625 74° East 495 570 39,000  Level Minneapolis Center
Sat 10:37:29 PM 42.2769 -93.8847 74° East 495 570 39,000  Level Minneapolis Center
Sat 10:38:29 PM 42.3153 -93.7086 74° East 495 570 39,000  Level Minneapolis Center
Sat 10:39:30 PM 42.3508 -93.5328 75° East 495 570 39,000  Level Minneapolis Center
Sat 10:40:31 PM 42.3947 -93.3203 74° East 495 570 39,000  Level Minneapolis Center
Sat 10:41:32 PM 42.4178 -93.1389 80° East 495 570 39,000  Level Minneapolis Center
Sat 10:42:33 PM 42.4386 -92.9592 81° East 492 566 39,000  Level Minneapolis Center
Sat 10:43:07 PM 42.4500 -92.8522 82° East 487 560 39,000  Level Chicago Center
Sat 10:44:08 PM 42.4703 -92.6742 81° East 485 558 39,000  Level Chicago Center
Sat 10:45:09 PM 42.4900 -92.4978 81° East 484 557 39,000  Level Chicago Center
Sat 10:46:10 PM 42.5097 -92.3214 81° East 481 554 39,000  Level Chicago Center
Sat 10:47:11 PM 42.5292 -92.1453 81° East 480 552 39,000  Level Chicago Center
Sat 10:48:12 PM 42.5486 -91.9689 81° East 480 552 39,000  Level Chicago Center
Sat 10:49:12 PM 42.5672 -91.7944 82° East 480 552 39,000  Level Chicago Center
Sat 10:50:13 PM 42.5886 -91.5861 82° East 479 551 39,000  Level Chicago Center
Sat 10:51:14 PM 42.6064 -91.4139 82° East 475 547 39,000  Level Chicago Center
Sat 10:52:15 PM 42.6244 -91.2414 82° East 473 544 39,000  Level Chicago Center
Sat 10:53:16 PM 42.6419 -91.0675 82° East 474 545 39,000 -744 Level Chicago Center
Sat 10:54:16 PM 42.6575 -90.8936 83° East 472 543 37,500 -2,033 Descending Chicago Center
Sat 10:55:17 PM 42.6750 -90.7189 82° East 472 543 34,900 -2,754 Descending Chicago Center
Sat 10:56:18 PM 42.6919 -90.5411 83° East 478 550 31,900 -2,902 Descending Chicago Center
Sat 10:57:19 PM 42.7119 -90.3294 83° East 475 547 29,000 -2,579 Descending Chicago Center
Sat 10:58:19 PM 42.7264 -90.1553 84° East 463 533 26,700 -2,281 Descending Chicago Center
Sat 10:59:20 PM 42.7314 -89.9894 88° East 445 512 24,400 -2,098 Descending Chicago Center
Sat 11:00:22 PM 42.7369 -89.8392 87° East 435 501 22,400 -2,000 Descending Chicago Center
Sat 11:01:23 PM 42.7414 -89.6831 88° East 421 484 20,300 -2,331 Descending Chicago Center
Sat 11:02:23 PM 42.7481 -89.5006 87° East 407 468 17,700 -2,380 Descending Chicago Center
Sat 11:03:24 PM 42.7536 -89.3553 87° East 390 449 15,500 -2,115 Descending Chicago Center
Sat 11:04:25 PM 42.7564 -89.2097 88° East 389 448 13,400 -1,525 Descending Chicago Center
Sat 11:05:26 PM 42.7606 -89.0681 88° East 382 440 12,400 -992 Descending Chicago Center
Sat 11:06:26 PM 42.7644 -88.9333 88° East 367 422 11,400 -1,091 Descending Chicago Center
Sat 11:07:27 PM 42.7694 -88.8014 87° East 356 410 10,200 -1,180 Descending Chicago Center
Sat 11:08:28 PM 42.7719 -88.6833 88° East 320 368 9,000 -645 Descending Chicago Center
Sat 11:09:28 PM 42.7889 -88.5717 78° East 307 353 8,900  Descending Chicago Center
Sat 11:10:29 PM 42.8092 -88.4572 76° East 307 353 9,000 49 Climbing Chicago Center
Sat 11:11:30 PM 42.8333 -88.3439 74° East 310 357 9,000 -98 Level Chicago Center
Sat 11:12:31 PM 42.8622 -88.2358 70° East 309 356 8,800 -942 Descending Chicago Center
Sat 11:13:31 PM 42.9128 -88.1458 52° Northeast 312 359 7,100 -1,736 Descending Chicago Center
Sat 11:14:32 PM 42.9806 -88.0786 36° Northeast 304 350 5,300 -1,967 Descending Chicago Center
Sat 11:15:33 PM 43.0294 -87.9844 55° Northeast 271 312 3,100 -1,488 Descending Chicago Center
Sat 11:16:33 PM 43.0361 -87.9181 82° East 217 250 2,300 -694 Descending Chicago Center
Sat 11:17:34 PM 43.0119 -87.8903 140° Southeast 150 173 1,700 -496 Descending Chicago Center
Sat 11:18:34 PM 42.9847 -87.8864 174° South 134 154 1,300 -400 Descending Chicago Center
Sat 11:20:00 PM 42.9469 -87.8971 166° South  Level Estimated
Sat 11:27:00 PM 42.9469 -87.8971 166° South  Level Estimated

Login

Don't have an account? Register now (free) for customized features, flight alerts, and more!